Time;durP1;ratioP1;P1;durP2;ratioP2;P2;SDS_P1;SDS_P2;PMS_P1;PMS_P2;Temp;Humidity;BMP_temperature;BMP_pressure;BME280_temperature;BME280_humidity;BME280_pressure;Samples;Min_cycle;Max_cycle;Signal;HPM_P1;HPM_P2
2022/08/03 00:01:21;;;;;;;5.33;2.40;;;19.50;99.90;;;;;;5073257;28;20195;-45
2022/08/03 00:03:46;;;;;;;5.70;3.10;;;19.50;99.90;;;;;;5073475;28;20175;-45
2022/08/03 00:06:12;;;;;;;7.63;3.10;;;19.40;99.90;;;;;;5072331;28;20730;-46
2022/08/03 00:08:37;;;;;;;7.63;3.53;;;19.40;99.90;;;;;;5073700;28;20187;-45
2022/08/03 00:11:05;;;;;;;6.77;3.10;;;19.40;99.90;;;;;;5074156;28;20199;-46
2022/08/03 00:13:32;;;;;;;6.10;2.97;;;19.30;99.90;;;;;;5073806;28;20183;-39
2022/08/03 00:15:58;;;;;;;6.97;2.90;;;19.30;99.90;;;;;;5073278;28;20183;-39
2022/08/03 00:18:23;;;;;;;5.23;3.37;;;19.30;99.90;;;;;;5073373;28;20186;-38
2022/08/03 00:20:49;;;;;;;5.37;3.23;;;19.30;99.90;;;;;;5073074;28;20195;-40
2022/08/03 00:23:15;;;;;;;4.03;2.73;;;19.20;99.90;;;;;;5073093;28;20599;-40
2022/08/03 00:25:41;;;;;;;6.67;2.83;;;19.20;99.90;;;;;;5073020;28;20172;-39
2022/08/03 00:28:07;;;;;;;4.30;2.67;;;19.20;99.90;;;;;;5073342;28;20202;-38
2022/08/03 00:30:33;;;;;;;4.87;2.80;;;19.20;99.90;;;;;;5073232;28;20199;-38
2022/08/03 00:32:59;;;;;;;7.80;2.90;;;19.10;99.90;;;;;;5072859;28;20720;-39
2022/08/03 00:35:25;;;;;;;3.73;2.80;;;19.10;99.90;;;;;;5072922;28;20187;-38
2022/08/03 00:37:50;;;;;;;5.97;3.10;;;19.00;99.90;;;;;;5072942;28;20172;-37
2022/08/03 00:40:18;;;;;;;3.17;2.60;;;19.00;99.90;;;;;;5072840;28;20199;-38
2022/08/03 00:42:47;;;;;;;6.13;3.77;;;19.00;99.90;;;;;;5072912;28;20171;-38
2022/08/03 00:45:13;;;;;;;5.13;2.73;;;19.00;99.90;;;;;;5073139;28;20199;-38
2022/08/03 00:47:39;;;;;;;5.60;3.00;;;19.00;99.90;;;;;;5073358;28;20705;-40
2022/08/03 00:50:05;;;;;;;6.60;3.10;;;18.90;99.90;;;;;;5072956;28;20286;-38
2022/08/03 00:52:30;;;;;;;5.80;2.40;;;18.90;99.90;;;;;;5072836;28;20168;-39
2022/08/03 00:54:56;;;;;;;8.13;3.10;;;18.90;99.90;;;;;;5072882;28;20599;-38
2022/08/03 00:57:21;;;;;;;9.13;2.90;;;18.90;99.90;;;;;;5073180;28;20175;-38
2022/08/03 00:59:47;;;;;;;11.13;3.10;;;18.80;99.90;;;;;;5072727;28;20218;-39
2022/08/03 01:02:12;;;;;;;12.73;2.93;;;18.80;99.90;;;;;;5072854;28;20199;-38
2022/08/03 01:04:38;;;;;;;8.77;2.90;;;18.80;99.90;;;;;;5073010;28;20176;-39
2022/08/03 01:07:42;;;;;;;9.30;3.30;;;18.80;99.90;;;;;;5072693;28;20260;-38
2022/08/03 01:10:16;;;;;;;4.77;2.83;;;18.70;99.90;;;;;;5063643;28;20212;-37
2022/08/03 01:12:57;;;;;;;5.87;2.80;;;18.70;99.90;;;;;;5072963;28;20168;-39
2022/08/03 01:15:40;;;;;;;8.60;2.73;;;18.70;99.90;;;;;;5072649;28;20195;-38
2022/08/03 01:18:23;;;;;;;9.27;2.97;;;18.60;99.90;;;;;;5073491;28;20171;-38
2022/08/03 01:20:54;;;;;;;5.17;2.50;;;18.60;99.90;;;;;;5076203;28;20196;-40
2022/08/03 01:24:03;;;;;;;10.67;2.93;;;18.50;99.90;;;;;;5076073;28;20207;-38
2022/08/03 01:27:00;;;;;;;8.87;3.00;;;18.50;99.90;;;;;;5064946;28;20276;-40
2022/08/03 01:29:51;;;;;;;6.70;2.90;;;18.50;99.90;;;;;;5075998;28;20229;-40
2022/08/03 01:32:23;;;;;;;5.50;3.03;;;18.50;99.90;;;;;;5076316;28;20176;-39
2022/08/03 01:34:58;;;;;;;9.57;2.77;;;18.50;99.90;;;;;;5076161;28;20531;-40
2022/08/03 01:37:30;;;;;;;11.20;2.83;;;18.40;99.90;;;;;;5075826;28;20654;-39
2022/08/03 01:40:00;;;;;;;8.00;3.30;;;18.40;99.90;;;;;;5075797;28;20586;-40
2022/08/03 01:42:27;;;;;;;8.60;3.27;;;18.40;99.90;;;;;;5074490;28;20179;-38
2022/08/03 01:44:56;;;;;;;8.70;2.53;;;18.40;99.90;;;;;;5075704;28;20171;-39
2022/08/03 01:47:23;;;;;;;6.97;2.80;;;18.30;99.90;;;;;;5075886;28;20585;-39
2022/08/03 01:49:51;;;;;;;12.67;2.90;;;18.30;99.90;;;;;;5075745;28;20172;-38
2022/08/03 01:52:18;;;;;;;3.80;2.70;;;18.30;99.90;;;;;;5075842;28;20179;-38
2022/08/03 01:54:47;;;;;;;6.20;2.37;;;18.30;99.90;;;;;;5075804;28;20199;-38
2022/08/03 01:57:14;;;;;;;7.80;2.90;;;18.20;99.90;;;;;;5075733;28;20188;-38
2022/08/03 01:59:41;;;;;;;6.73;2.53;;;18.20;99.90;;;;;;5075443;28;20218;-40
2022/08/03 02:02:10;;;;;;;10.40;2.60;;;18.10;99.90;;;;;;5075674;28;20221;-37
2022/08/03 02:04:37;;;;;;;10.93;2.73;;;18.10;99.90;;;;;;5075539;28;20183;-38
2022/08/03 02:07:03;;;;;;;6.10;2.70;;;18.20;99.90;;;;;;5075284;28;20617;-39
2022/08/03 02:09:30;;;;;;;6.10;2.23;;;18.10;99.90;;;;;;5075228;28;20228;-38
2022/08/03 02:11:56;;;;;;;6.70;2.30;;;18.10;99.90;;;;;;5075493;28;20289;-37
2022/08/03 02:14:23;;;;;;;7.77;2.63;;;18.10;99.90;;;;;;5073878;28;20209;-39
2022/08/03 02:16:50;;;;;;;4.07;2.77;;;18.10;99.90;;;;;;5075058;28;20198;-40
2022/08/03 02:19:17;;;;;;;7.90;2.47;;;18.00;99.90;;;;;;5075299;28;20262;-38
2022/08/03 02:21:45;;;;;;;4.23;2.23;;;18.00;99.90;;;;;;5074934;28;20734;-41
2022/08/03 02:24:10;;;;;;;5.13;2.10;;;18.00;99.90;;;;;;5075227;28;20176;-40
2022/08/03 02:26:38;;;;;;;5.50;2.47;;;17.90;99.90;;;;;;5075658;28;20214;-40
2022/08/03 02:29:15;;;;;;;3.50;2.10;;;17.90;99.90;;;;;;5073911;28;20251;-39
2022/08/03 02:31:43;;;;;;;5.73;2.60;;;17.90;99.90;;;;;;5075003;28;20564;-41
2022/08/03 02:34:14;;;;;;;5.50;2.60;;;17.80;99.90;;;;;;5074602;28;20187;-41
2022/08/03 02:36:43;;;;;;;7.10;2.50;;;17.80;99.90;;;;;;5074686;28;20171;-39
2022/08/03 02:39:12;;;;;;;7.43;2.70;;;17.80;99.90;;;;;;5074624;28;20175;-40
2022/08/03 02:41:45;;;;;;;2.90;2.50;;;17.80;99.90;;;;;;5074761;28;20195;-40
2022/08/03 02:44:11;;;;;;;3.33;2.07;;;17.80;99.90;;;;;;5073358;28;20266;-39
2022/08/03 02:46:41;;;;;;;5.87;2.20;;;17.70;99.90;;;;;;5074481;28;20203;-39
2022/08/03 02:49:07;;;;;;;6.30;2.43;;;17.70;99.90;;;;;;5074704;28;20222;-39
2022/08/03 02:51:35;;;;;;;10.30;2.70;;;17.60;99.90;;;;;;5074325;28;20195;-40
2022/08/03 02:54:07;;;;;;;5.00;2.17;;;17.70;99.90;;;;;;5074355;28;20544;-40
2022/08/03 02:56:34;;;;;;;3.13;2.30;;;17.70;99.90;;;;;;5074257;28;20639;-40
2022/08/03 02:59:00;;;;;;;4.10;2.37;;;17.60;99.90;;;;;;5074214;28;20647;-40
2022/08/03 03:01:27;;;;;;;4.33;2.37;;;17.60;99.90;;;;;;5074220;28;20288;-39
2022/08/03 03:03:56;;;;;;;5.33;2.27;;;17.60;99.90;;;;;;5074426;28;20172;-38
2022/08/03 03:06:23;;;;;;;6.67;2.33;;;17.50;99.90;;;;;;5073951;28;20238;-38
2022/08/03 03:08:50;;;;;;;5.77;2.47;;;17.60;99.90;;;;;;5074324;28;20176;-39
2022/08/03 03:11:18;;;;;;;8.03;2.60;;;17.50;99.90;;;;;;5073938;28;20290;-39
2022/08/03 03:13:45;;;;;;;4.50;2.30;;;17.40;99.90;;;;;;5073937;28;20659;-37
2022/08/03 03:16:13;;;;;;;6.80;2.60;;;17.40;99.90;;;;;;5073933;28;20240;-40
2022/08/03 03:18:39;;;;;;;5.60;2.40;;;17.40;99.90;;;;;;5074472;28;20179;-40
2022/08/03 03:21:07;;;;;;;5.80;2.60;;;17.30;99.90;;;;;;5073854;28;20199;-38
2022/08/03 03:23:35;;;;;;;6.57;2.70;;;17.30;99.90;;;;;;5074132;28;20260;-39
2022/08/03 03:26:01;;;;;;;3.50;2.63;;;17.30;99.90;;;;;;5074273;28;20184;-39
2022/08/03 03:28:27;;;;;;;9.57;2.80;;;17.30;99.90;;;;;;5074024;28;20205;-38
2022/08/03 03:30:53;;;;;;;6.80;2.73;;;17.30;99.90;;;;;;5073623;28;20250;-38
2022/08/03 03:33:20;;;;;;;7.43;2.43;;;17.20;99.90;;;;;;5073718;28;20195;-38
2022/08/03 03:35:46;;;;;;;6.67;2.70;;;17.20;99.90;;;;;;5073897;28;20266;-38
2022/08/03 03:38:12;;;;;;;5.13;2.77;;;17.20;99.90;;;;;;5073877;28;20188;-38
2022/08/03 03:40:38;;;;;;;10.70;2.90;;;17.20;99.90;;;;;;5073318;28;20278;-38
2022/08/03 03:43:08;;;;;;;4.97;2.67;;;17.10;99.90;;;;;;5073544;28;20218;-39
2022/08/03 03:45:34;;;;;;;5.07;2.43;;;17.10;99.90;;;;;;5072269;28;20203;-39
2022/08/03 03:48:04;;;;;;;3.83;2.30;;;17.00;99.90;;;;;;5073671;28;20203;-39
2022/08/03 03:50:34;;;;;;;3.13;2.40;;;17.10;99.90;;;;;;5073357;28;20621;-38
2022/08/03 03:53:00;;;;;;;3.13;2.40;;;17.00;99.90;;;;;;5073426;28;20186;-38
2022/08/03 03:55:26;;;;;;;6.23;2.57;;;17.00;99.90;;;;;;5074188;28;20516;-40
2022/08/03 03:57:52;;;;;;;2.87;2.23;;;17.00;99.90;;;;;;5073914;28;20250;-38
2022/08/03 04:00:18;;;;;;;4.40;2.40;;;17.00;99.90;;;;;;5073377;28;20297;-38
2022/08/03 04:02:44;;;;;;;4.87;2.50;;;17.00;99.90;;;;;;5073312;28;20266;-38
2022/08/03 04:11:39;;;;;;;3.77;2.50;;;16.90;99.90;;;;;;5073669;28;20751;-39
2022/08/03 04:14:21;;;;;;;6.70;2.50;;;16.90;99.90;;;;;;5064494;28;20245;-38
2022/08/03 04:16:55;;;;;;;3.90;2.70;;;16.90;99.90;;;;;;5073783;28;20171;-38
2022/08/03 04:19:35;;;;;;;5.03;2.27;;;16.90;99.90;;;;;;5073309;28;20695;-39
2022/08/03 04:22:05;;;;;;;5.73;2.43;;;16.90;99.90;;;;;;5073822;28;20174;-40
2022/08/03 04:24:43;;;;;;;2.93;2.40;;;16.90;99.90;;;;;;5074048;28;20168;-37
2022/08/03 04:27:12;;;;;;;5.87;2.53;;;16.90;99.90;;;;;;5073196;28;20195;-38
2022/08/03 04:29:42;;;;;;;5.10;2.30;;;16.90;99.90;;;;;;5073223;28;20183;-38
2022/08/03 04:32:09;;;;;;;2.50;2.30;;;16.90;99.90;;;;;;5073631;28;20168;-40
2022/08/03 04:34:34;;;;;;;4.47;2.40;;;16.90;99.90;;;;;;5073521;28;20647;-40
2022/08/03 04:37:04;;;;;;;6.90;2.63;;;16.90;99.90;;;;;;5071862;28;20183;-37
2022/08/03 04:39:31;;;;;;;4.73;2.70;;;16.80;99.90;;;;;;5073533;28;20167;-38
2022/08/03 04:42:04;;;;;;;4.03;2.57;;;16.90;99.90;;;;;;5073323;28;20172;-40
2022/08/03 04:44:34;;;;;;;7.83;4.20;;;16.90;99.90;;;;;;5073341;28;20184;-40
2022/08/03 04:47:00;;;;;;;3.27;2.40;;;16.90;99.90;;;;;;5073582;28;20192;-39
2022/08/03 04:49:26;;;;;;;7.63;2.40;;;16.90;99.90;;;;;;5073183;28;20232;-39
2022/08/03 04:51:52;;;;;;;3.27;2.33;;;16.90;99.90;;;;;;5073538;28;20532;-39
2022/08/03 04:54:17;;;;;;;5.93;2.47;;;16.90;99.90;;;;;;5075747;28;20186;-37
2022/08/03 04:56:43;;;;;;;5.00;2.90;;;17.00;99.90;;;;;;5077910;28;20179;-40
2022/08/03 04:59:10;;;;;;;4.13;2.80;;;16.90;99.90;;;;;;5076970;28;20186;-39
2022/08/03 05:01:35;;;;;;;7.43;2.57;;;17.00;99.90;;;;;;5076626;28;20678;-38
2022/08/03 05:04:02;;;;;;;5.30;2.30;;;17.00;99.90;;;;;;5076704;28;20182;-40
2022/08/03 05:06:28;;;;;;;2.77;2.00;;;17.00;99.90;;;;;;5076627;28;20234;-39
2022/08/03 05:08:54;;;;;;;5.57;2.30;;;17.00;99.90;;;;;;5076539;28;20667;-40
2022/08/03 05:11:19;;;;;;;3.70;2.40;;;17.10;99.90;;;;;;5077707;28;20282;-40
2022/08/03 05:13:45;;;;;;;3.30;2.80;;;17.10;99.90;;;;;;5076823;28;20186;-38
2022/08/03 05:16:12;;;;;;;7.87;2.40;;;17.10;99.90;;;;;;5076641;28;20645;-42
2022/08/03 05:18:39;;;;;;;5.30;2.40;;;17.20;99.90;;;;;;5075019;28;20191;-40
2022/08/03 05:21:04;;;;;;;5.47;2.33;;;17.40;99.90;;;;;;5077512;28;20711;-39
2022/08/03 05:23:30;;;;;;;4.60;2.63;;;17.40;99.90;;;;;;5076797;28;20203;-40
2022/08/03 05:25:55;;;;;;;3.37;2.20;;;17.40;99.90;;;;;;5076409;28;20198;-40
2022/08/03 05:28:21;;;;;;;9.70;3.37;;;17.50;99.90;;;;;;5076687;28;20180;-39
2022/08/03 05:30:47;;;;;;;8.10;2.30;;;17.60;99.90;;;;;;5077010;28;20673;-40
2022/08/03 05:33:13;;;;;;;4.37;3.30;;;17.60;99.90;;;;;;5076231;28;20201;-38
2022/08/03 05:35:39;;;;;;;4.93;2.77;;;17.70;99.90;;;;;;5076299;28;20187;-39
2022/08/03 05:38:05;;;;;;;8.23;3.00;;;17.90;99.90;;;;;;5076509;28;20179;-41
2022/08/03 05:40:31;;;;;;;3.80;2.80;;;17.90;99.90;;;;;;5075912;28;20204;-37
2022/08/03 05:42:57;;;;;;;5.37;2.40;;;18.00;99.90;;;;;;5076330;28;20191;-38
2022/08/03 05:45:24;;;;;;;4.93;2.40;;;18.10;99.90;;;;;;5075884;28;20190;-41
2022/08/03 05:47:49;;;;;;;3.33;2.37;;;18.20;99.90;;;;;;5074596;28;20672;-37
2022/08/03 05:50:17;;;;;;;6.30;2.40;;;18.30;99.90;;;;;;5076106;28;20222;-38
2022/08/03 05:52:43;;;;;;;6.03;2.80;;;18.40;99.90;;;;;;5076006;28;20172;-38
2022/08/03 05:55:09;;;;;;;2.93;2.07;;;18.50;99.90;;;;;;5075735;28;20187;-40
2022/08/03 05:57:35;;;;;;;5.50;2.47;;;18.70;99.90;;;;;;5075891;28;20624;-40
2022/08/03 06:00:04;;;;;;;4.10;2.53;;;18.80;99.90;;;;;;5075768;28;20365;-38
2022/08/03 06:02:30;;;;;;;4.40;2.33;;;18.90;99.90;;;;;;5075923;28;20278;-37
2022/08/03 06:04:55;;;;;;;6.07;2.50;;;19.00;99.90;;;;;;5075838;28;20651;-37
2022/08/03 06:07:21;;;;;;;6.70;2.33;;;19.20;99.90;;;;;;5075462;28;20253;-39
2022/08/03 06:09:47;;;;;;;6.67;2.20;;;19.30;99.90;;;;;;5075623;28;20632;-37
2022/08/03 06:12:12;;;;;;;4.20;2.23;;;19.50;99.90;;;;;;5075614;28;20631;-38
2022/08/03 06:14:38;;;;;;;4.50;2.57;;;19.80;99.90;;;;;;5075723;28;20604;-40
2022/08/03 06:17:04;;;;;;;7.70;2.50;;;20.00;99.90;;;;;;5075525;28;20187;-39
2022/08/03 06:19:29;;;;;;;2.47;1.90;;;20.10;99.90;;;;;;5075442;28;20297;-37
2022/08/03 06:21:55;;;;;;;6.33;2.40;;;20.30;99.90;;;;;;5075661;28;20199;-37
2022/08/03 06:24:20;;;;;;;3.27;2.27;;;20.50;99.90;;;;;;5075623;28;20190;-40
2022/08/03 06:26:46;;;;;;;5.63;1.90;;;20.70;99.90;;;;;;5075121;28;20675;-38
2022/08/03 06:29:11;;;;;;;3.93;1.90;;;21.00;99.90;;;;;;5075010;28;20184;-40
2022/08/03 06:31:37;;;;;;;17.00;2.60;;;21.20;99.90;;;;;;5075009;28;20203;-37
2022/08/03 06:34:04;;;;;;;2.93;1.60;;;21.40;99.90;;;;;;5075091;28;20199;-36
2022/08/03 06:36:30;;;;;;;4.37;1.90;;;21.70;99.90;;;;;;5074958;28;20180;-38
2022/08/03 06:38:57;;;;;;;5.30;2.00;;;21.90;99.90;;;;;;5075538;28;20191;-39
2022/08/03 06:41:24;;;;;;;4.47;1.60;;;22.10;99.90;;;;;;5074971;28;20590;-38
2022/08/03 06:43:49;;;;;;;6.47;1.53;;;22.40;99.90;;;;;;5075105;28;20272;-38
2022/08/03 06:46:15;;;;;;;3.37;1.60;;;22.60;99.90;;;;;;5073311;28;20269;-40
2022/08/03 06:48:41;;;;;;;2.17;1.70;;;22.90;99.90;;;;;;5074701;28;20175;-39
2022/08/03 06:51:06;;;;;;;6.27;1.70;;;23.10;99.90;;;;;;5074783;28;20203;-40
2022/08/03 06:53:32;;;;;;;6.50;1.80;;;23.30;99.90;;;;;;5074584;28;20249;-39
2022/08/03 06:55:57;;;;;;;4.23;1.93;;;23.50;99.90;;;;;;5074393;28;20186;-40
2022/08/03 06:58:23;;;;;;;6.37;1.70;;;23.80;99.90;;;;;;5074750;28;20267;-39
2022/08/03 07:00:49;;;;;;;4.13;1.30;;;24.10;99.90;;;;;;5074203;28;20218;-37
2022/08/03 07:03:15;;;;;;;7.03;1.40;;;24.40;99.90;;;;;;5074251;28;20634;-38
2022/08/03 07:05:42;;;;;;;7.00;1.63;;;24.60;99.90;;;;;;5074290;28;20184;-39
2022/08/03 07:08:08;;;;;;;2.53;1.17;;;24.80;99.90;;;;;;5074401;28;20207;-40
2022/08/03 07:10:34;;;;;;;1.93;1.40;;;24.90;99.90;;;;;;5074286;28;20200;-37
2022/08/03 07:12:59;;;;;;;4.00;1.47;;;25.00;99.90;;;;;;5074752;28;20207;-37
2022/08/03 07:15:25;;;;;;;4.73;1.57;;;25.20;99.90;;;;;;5073769;28;20175;-39
2022/08/03 07:17:50;;;;;;;2.70;1.40;;;25.30;99.90;;;;;;5074157;28;20179;-38
2022/08/03 07:20:17;;;;;;;4.47;1.90;;;25.50;99.90;;;;;;5073946;28;20203;-38
2022/08/03 07:22:43;;;;;;;3.17;1.60;;;25.60;99.90;;;;;;5074135;28;20184;-39
2022/08/03 07:25:09;;;;;;;2.83;1.53;;;25.80;99.90;;;;;;5074811;28;20232;-37
2022/08/03 07:27:35;;;;;;;5.80;1.40;;;26.00;99.90;;;;;;5074470;28;20682;-40
2022/08/03 07:30:04;;;;;;;5.30;1.13;;;26.10;99.90;;;;;;5073944;28;20195;-38
2022/08/03 07:32:30;;;;;;;6.90;1.60;;;26.20;99.90;;;;;;5073983;28;20313;-39
2022/08/03 07:34:55;;;;;;;3.23;1.20;;;26.20;99.90;;;;;;5074346;28;20199;-40
2022/08/03 07:37:21;;;;;;;4.50;1.10;;;26.30;99.90;;;;;;5074176;28;20207;-39
2022/08/03 07:39:47;;;;;;;4.37;1.30;;;26.40;99.90;;;;;;5074161;28;20249;-39
2022/08/03 07:42:13;;;;;;;1.60;1.20;;;26.50;99.90;;;;;;5073808;28;20194;-38
2022/08/03 07:44:38;;;;;;;1.77;1.20;;;26.60;99.90;;;;;;5073914;28;20180;-40
2022/08/03 07:47:04;;;;;;;5.90;1.37;;;26.80;99.90;;;;;;5073849;28;20203;-41
2022/08/03 07:49:30;;;;;;;2.60;1.43;;;27.00;99.90;;;;;;5075021;28;20255;-41
2022/08/03 07:54:40;;;;;;;3.33;1.33;;;27.50;99.90;;;;;;5074246;28;20178;-41
2022/08/03 07:57:05;;;;;;;2.40;1.47;;;27.70;99.90;;;;;;5073880;28;20183;-40
2022/08/03 07:59:31;;;;;;;1.40;1.27;;;27.90;99.90;;;;;;5073409;28;20219;-40
2022/08/03 08:01:57;;;;;;;4.80;1.17;;;28.10;99.90;;;;;;5073109;28;20188;-41
2022/08/03 08:04:22;;;;;;;2.77;1.40;;;28.20;99.90;;;;;;5074375;28;20191;-40
2022/08/03 08:06:48;;;;;;;1.77;1.20;;;28.30;99.90;;;;;;5073700;28;20241;-39
2022/08/03 08:09:14;;;;;;;2.90;1.10;;;28.30;99.90;;;;;;5072615;28;20197;-39
2022/08/03 08:11:39;;;;;;;1.73;1.23;;;28.40;99.90;;;;;;5073355;28;20202;-41
2022/08/03 08:14:06;;;;;;;2.93;1.30;;;28.40;99.90;;;;;;5073540;28;20520;-40
2022/08/03 08:16:31;;;;;;;4.10;1.33;;;28.50;99.90;;;;;;5073675;28;20550;-39
2022/08/03 08:18:57;;;;;;;5.20;1.17;;;28.70;99.90;;;;;;5073534;28;20211;-41
2022/08/03 08:21:23;;;;;;;2.17;1.17;;;28.90;99.90;;;;;;5073516;28;20218;-41
2022/08/03 08:23:48;;;;;;;4.60;0.87;;;29.00;99.90;;;;;;5073432;28;20179;-41
2022/08/03 08:26:14;;;;;;;2.77;1.30;;;29.00;99.90;;;;;;5074230;28;20183;-41
2022/08/03 08:28:39;;;;;;;2.03;1.10;;;29.10;99.90;;;;;;5079048;28;20180;-43
2022/08/03 08:31:05;;;;;;;7.50;1.20;;;29.10;99.90;;;;;;5077132;28;20199;-43
2022/08/03 08:33:33;;;;;;;1.87;1.33;;;29.20;99.90;;;;;;5077401;28;20651;-42
2022/08/03 08:35:58;;;;;;;1.90;1.10;;;29.20;99.90;;;;;;5077370;28;20180;-43
2022/08/03 08:38:25;;;;;;;3.57;1.23;;;29.30;99.90;;;;;;5077612;28;20263;-44
2022/08/03 08:40:53;;;;;;;2.80;1.17;;;29.30;99.90;;;;;;5075678;28;20207;-44
2022/08/03 08:43:19;;;;;;;6.07;1.60;;;29.40;99.90;;;;;;5077377;28;20529;-42
2022/08/03 08:45:47;;;;;;;2.27;1.23;;;29.50;99.90;;;;;;5077210;28;20229;-42
2022/08/03 08:48:14;;;;;;;4.57;1.60;;;29.60;99.90;;;;;;5077300;28;20290;-44
2022/08/03 08:50:40;;;;;;;2.77;1.47;;;29.70;99.90;;;;;;5077031;28;20195;-42
2022/08/03 08:53:08;;;;;;;2.30;1.33;;;29.80;99.90;;;;;;5077092;28;20203;-42
2022/08/03 08:55:34;;;;;;;4.83;1.20;;;29.90;99.90;;;;;;5076704;28;20229;-43
2022/08/03 08:58:04;;;;;;;13.57;1.53;;;30.00;99.90;;;;;;5076863;28;20179;-41
2022/08/03 09:00:30;;;;;;;1.47;1.00;;;30.00;99.90;;;;;;5076875;28;20207;-41
2022/08/03 09:02:55;;;;;;;2.23;1.23;;;30.10;99.90;;;;;;5076670;28;20187;-42
2022/08/03 09:05:22;;;;;;;3.10;1.17;;;30.10;99.90;;;;;;5076689;28;20184;-41
2022/08/03 09:07:48;;;;;;;1.75;1.20;;;30.20;99.90;;;;;;5076581;28;20455;-39
2022/08/03 09:10:18;;;;;;;4.27;1.43;;;30.30;99.90;;;;;;5076432;28;20196;-40
2022/08/03 09:12:50;;;;;;;3.50;1.25;;;30.40;99.90;;;;;;5076770;28;20633;-40
2022/08/03 09:15:24;;;;;;;5.65;1.45;;;30.40;99.90;;;;;;5076907;28;20179;-39
2022/08/03 09:17:53;;;;;;;1.70;1.08;;;30.30;99.90;;;;;;5076732;28;20213;-39
2022/08/03 09:20:20;;;;;;;1.90;1.02;;;30.30;99.90;;;;;;5076527;28;20306;-40
2022/08/03 09:22:54;;;;;;;2.50;1.30;;;30.30;99.90;;;;;;5076310;28;20184;-42
2022/08/03 09:25:27;;;;;;;5.68;1.10;;;30.40;99.90;;;;;;5076502;28;20657;-40
2022/08/03 09:27:53;;;;;;;4.10;1.10;;;30.40;99.90;;;;;;5076895;28;20559;-42
2022/08/03 09:30:19;;;;;;;1.35;0.93;;;30.50;99.90;;;;;;5074847;28;20197;-47
2022/08/03 09:32:46;;;;;;;4.13;1.30;;;30.60;99.90;;;;;;5075955;28;20198;-47
2022/08/03 09:35:13;;;;;;;4.13;1.30;;;30.60;99.90;;;;;;5076103;28;20592;-48
2022/08/03 09:37:39;;;;;;;5.55;1.48;;;30.70;99.90;;;;;;5075832;28;20562;-47
2022/08/03 09:40:05;;;;;;;8.25;1.02;;;30.70;99.90;;;;;;5075960;28;20278;-47
2022/08/03 09:42:34;;;;;;;2.25;1.20;;;30.80;99.90;;;;;;5076145;28;20186;-48
2022/08/03 09:44:59;;;;;;;5.00;1.20;;;31.00;99.90;;;;;;5075813;28;20168;-46
2022/08/03 09:47:32;;;;;;;3.05;1.30;;;31.00;99.90;;;;;;5076259;28;20715;-46
2022/08/03 09:50:08;;;;;;;6.35;1.30;;;31.00;99.90;;;;;;5075967;28;20199;-48
2022/08/03 09:52:36;;;;;;;3.70;1.05;;;31.00;99.90;;;;;;5075995;28;20530;-48
2022/08/03 09:55:08;;;;;;;4.45;1.25;;;31.00;99.90;;;;;;5074381;28;20187;-48
2022/08/03 09:57:34;;;;;;;3.97;1.20;;;30.90;99.90;;;;;;5075969;28;20168;-48
2022/08/03 10:00:12;;;;;;;2.58;1.20;;;31.00;99.90;;;;;;5075768;28;20230;-48
2022/08/03 10:02:39;;;;;;;3.50;1.35;;;31.00;99.90;;;;;;5075903;28;20172;-48
2022/08/03 10:05:07;;;;;;;4.03;1.38;;;31.10;99.90;;;;;;5075444;28;20544;-46
2022/08/03 10:07:49;;;;;;;3.92;1.50;;;31.20;99.90;;;;;;5075662;28;20539;-47
2022/08/03 10:10:16;;;;;;;2.97;1.10;;;31.20;99.90;;;;;;5075188;28;20191;-48
2022/08/03 10:12:43;;;;;;;2.03;1.25;;;31.20;99.90;;;;;;5075495;28;20190;-49
2022/08/03 10:15:09;;;;;;;2.70;1.42;;;31.30;99.90;;;;;;5075222;28;20249;-48
2022/08/03 10:17:36;;;;;;;8.05;1.55;;;31.30;99.90;;;;;;5075176;28;20179;-48
2022/08/03 10:20:05;;;;;;;4.50;1.27;;;31.40;99.90;;;;;;5075103;28;20199;-48
2022/08/03 10:22:34;;;;;;;3.28;1.45;;;31.40;99.90;;;;;;5075305;28;20587;-48
2022/08/03 10:25:11;;;;;;;5.03;1.20;;;31.50;99.90;;;;;;5074919;28;20183;-49
2022/08/03 10:27:40;;;;;;;2.05;1.23;;;31.40;99.90;;;;;;5075251;28;20617;-47
2022/08/03 10:30:09;;;;;;;2.97;1.08;;;31.50;99.90;;;;;;5075483;28;20231;-48
2022/08/03 10:32:45;;;;;;;4.05;1.13;;;31.60;99.90;;;;;;5074850;28;20187;-47
2022/08/03 10:35:13;;;;;;;1.40;1.00;;;31.70;99.90;;;;;;5073568;28;20183;-49
2022/08/03 10:37:44;;;;;;;4.53;1.60;;;31.90;99.90;;;;;;5075071;28;20589;-48
2022/08/03 10:40:14;;;;;;;3.40;1.25;;;31.90;99.90;;;;;;5074905;28;20199;-49
2022/08/03 10:42:43;;;;;;;2.05;1.10;;;32.00;99.90;;;;;;5073411;28;20183;-49
2022/08/03 10:45:18;;;;;;;4.15;1.15;;;32.00;99.90;;;;;;5074595;28;20172;-49
2022/08/03 10:47:46;;;;;;;1.75;1.20;;;32.10;99.90;;;;;;5074528;28;20663;-48
2022/08/03 10:50:11;;;;;;;2.92;1.20;;;32.00;99.90;;;;;;5073636;28;20663;-47
2022/08/03 10:53:00;;;;;;;4.50;1.20;;;32.00;99.90;;;;;;5074411;28;20259;-48
2022/08/03 10:58:35;;;;;;;2.95;1.20;;;32.20;99.90;;;;;;5074959;28;20166;-48
2022/08/03 11:01:01;;;;;;;6.15;1.50;;;32.20;99.90;;;;;;5074099;28;20216;-48
2022/08/03 11:03:27;;;;;;;2.97;1.65;;;32.30;99.90;;;;;;5075003;28;20191;-48
2022/08/03 11:06:17;;;;;;;3.40;1.15;;;32.40;99.90;;;;;;5074138;28;20183;-47
2022/08/03 11:08:43;;;;;;;3.80;1.67;;;32.50;99.90;;;;;;5074446;28;20175;-48
2022/08/03 11:11:17;;;;;;;2.92;1.20;;;32.50;99.50;;;;;;5074249;28;20192;-49
2022/08/03 11:14:04;;;;;;;1.50;1.17;;;32.50;99.10;;;;;;5074319;28;20178;-47
2022/08/03 11:16:35;;;;;;;4.55;1.40;;;32.60;99.90;;;;;;5073981;28;20695;-47
2022/08/03 11:19:06;;;;;;;5.25;1.55;;;32.70;99.90;;;;;;5074278;28;20172;-49
2022/08/03 11:21:47;;;;;;;1.40;1.17;;;32.80;99.90;;;;;;5073836;28;20195;-49
2022/08/03 11:24:42;;;;;;;2.40;1.42;;;32.90;99.90;;;;;;5072624;28;20266;-48
2022/08/03 11:27:16;;;;;;;6.45;1.60;;;33.00;99.90;;;;;;5073979;28;20215;-49
2022/08/03 11:30:17;;;;;;;3.60;1.00;;;33.20;99.90;;;;;;5073862;28;20666;-48
2022/08/03 11:32:42;;;;;;;3.83;1.60;;;33.20;99.10;;;;;;5060187;28;20203;-48
2022/08/03 11:35:17;;;;;;;2.10;1.10;;;33.20;99.00;;;;;;5072457;28;20160;-49
2022/08/03 11:38:01;;;;;;;2.67;1.00;;;33.10;99.40;;;;;;5073948;28;20171;-48
2022/08/03 11:40:50;;;;;;;6.35;1.30;;;33.00;99.20;;;;;;5073796;28;20217;-49
2022/08/03 11:43:25;;;;;;;4.78;1.45;;;33.00;98.50;;;;;;5074414;28;20507;-49
2022/08/03 11:46:18;;;;;;;6.97;1.17;;;33.10;99.20;;;;;;5073778;28;20239;-49
2022/08/03 11:48:45;;;;;;;1.75;1.10;;;33.10;98.40;;;;;;5073844;28;20168;-48
2022/08/03 11:51:30;;;;;;;1.83;1.00;;;33.10;99.40;;;;;;5073490;28;20191;-49
2022/08/03 11:54:01;;;;;;;7.97;1.23;;;33.30;99.00;;;;;;5074097;28;20587;-48
2022/08/03 11:56:28;;;;;;;1.20;0.98;;;33.40;99.80;;;;;;5073691;28;20187;-49
2022/08/03 11:58:56;;;;;;;1.73;1.17;;;33.40;98.60;;;;;;5073534;28;20183;-46
2022/08/03 12:01:23;;;;;;;3.72;1.35;;;33.50;99.90;;;;;;5073454;28;20262;-49
2022/08/03 12:03:50;;;;;;;1.75;1.17;;;33.60;98.70;;;;;;5073605;28;20210;-47
2022/08/03 12:06:17;;;;;;;4.03;1.30;;;33.60;99.40;;;;;;5073549;28;20218;-50
2022/08/03 12:08:44;;;;;;;3.08;1.13;;;33.60;98.50;;;;;;5073513;28;20538;-49
2022/08/03 12:11:12;;;;;;;5.10;1.85;;;33.60;97.40;;;;;;5073158;28;20195;-48
2022/08/03 12:13:44;;;;;;;2.38;1.35;;;33.70;99.10;;;;;;5073241;28;20175;-49
2022/08/03 12:16:15;;;;;;;3.90;1.27;;;33.80;98.50;;;;;;5071945;28;20772;-49
2022/08/03 12:18:41;;;;;;;1.10;1.00;;;33.80;96.00;;;;;;5073807;28;20199;-49
2022/08/03 12:21:09;;;;;;;4.78;0.98;;;33.80;96.70;;;;;;5073224;28;20226;-49
2022/08/03 12:23:36;;;;;;;4.00;0.98;;;33.90;97.00;;;;;;5073483;28;20203;-50
2022/08/03 12:26:07;;;;;;;2.90;1.10;;;34.00;96.80;;;;;;5073133;28;20254;-49
2022/08/03 12:28:34;;;;;;;3.38;1.27;;;34.00;95.30;;;;;;5073407;28;20640;-49
2022/08/03 12:31:03;;;;;;;1.52;1.13;;;34.00;97.50;;;;;;5073023;28;20242;-49
2022/08/03 12:33:28;;;;;;;5.95;1.40;;;34.00;98.30;;;;;;5073028;28;20202;-49
2022/08/03 12:36:09;;;;;;;1.20;0.80;;;34.10;97.60;;;;;;5073303;28;20620;-48
2022/08/03 12:38:38;;;;;;;4.03;1.10;;;34.10;99.30;;;;;;5073011;28;20700;-48
2022/08/03 12:41:15;;;;;;;3.58;1.00;;;34.30;99.90;;;;;;5072966;28;20202;-48
2022/08/03 12:43:48;;;;;;;3.70;0.85;;;34.50;98.50;;;;;;5073263;28;20164;-48
2022/08/03 12:46:15;;;;;;;2.10;1.02;;;34.50;95.40;;;;;;5073114;28;20190;-49
2022/08/03 12:49:04;;;;;;;2.97;1.00;;;34.40;95.30;;;;;;5073739;28;20628;-50
2022/08/03 12:51:33;;;;;;;3.95;1.05;;;34.50;98.20;;;;;;5073146;28;20208;-49
2022/08/03 12:53:59;;;;;;;2.63;1.35;;;34.60;98.60;;;;;;5072879;28;20688;-49
2022/08/03 12:56:25;;;;;;;2.25;1.00;;;34.70;97.10;;;;;;5073362;28;20186;-49
2022/08/03 12:58:51;;;;;;;3.10;1.02;;;34.70;96.60;;;;;;5073104;28;20168;-49
2022/08/03 13:01:21;;;;;;;1.98;0.93;;;34.70;96.00;;;;;;5072960;28;20258;-48
2022/08/03 13:03:48;;;;;;;4.15;1.00;;;34.70;96.10;;;;;;5073054;28;20338;-48
2022/08/03 13:06:18;;;;;;;3.50;0.93;;;34.80;97.90;;;;;;5072742;28;20184;-46